Time;durP1;ratioP1;P1;durP2;ratioP2;P2;SDS_P1;SDS_P2;PMS_P1;PMS_P2;Temp;Humidity;BMP_temperature;BMP_pressure;BME280_temperature;BME280_humidity;BME280_pressure;Samples;Min_cycle;Max_cycle;Signal;HPM_P1;HPM_P2
2021/10/31 00:00:33;;;;;;;7.40;3.50;;;13.60;99.90;;;;;;5048796;28;20885;-54
2021/10/31 00:02:59;;;;;;;6.20;3.20;;;13.60;99.90;;;;;;5050751;28;20384;-57
2021/10/31 00:05:25;;;;;;;6.73;3.60;;;13.50;99.90;;;;;;5050432;28;20413;-54
2021/10/31 00:07:51;;;;;;;6.65;3.28;;;13.50;99.90;;;;;;5050511;28;20400;-54
2021/10/31 00:10:17;;;;;;;7.90;3.35;;;13.50;99.90;;;;;;5049219;28;20920;-54
2021/10/31 00:12:43;;;;;;;7.30;3.10;;;13.60;99.90;;;;;;5050854;28;20402;-54
2021/10/31 00:15:09;;;;;;;5.88;2.80;;;13.70;99.90;;;;;;5050438;28;20382;-59
2021/10/31 00:17:35;;;;;;;5.93;2.90;;;13.70;99.90;;;;;;5050186;28;20492;-54
2021/10/31 00:20:00;;;;;;;6.87;3.20;;;13.70;99.90;;;;;;5050743;28;20853;-54
2021/10/31 00:22:26;;;;;;;6.10;3.20;;;13.80;99.90;;;;;;5050266;28;20416;-56
2021/10/31 00:24:52;;;;;;;6.33;2.80;;;13.70;99.90;;;;;;5050706;28;20532;-54
2021/10/31 00:27:17;;;;;;;6.00;2.50;;;13.80;99.90;;;;;;5049317;28;20456;-54
2021/10/31 00:29:43;;;;;;;6.93;3.20;;;13.80;99.90;;;;;;5050635;28;20884;-55
2021/10/31 00:32:09;;;;;;;6.47;3.00;;;13.90;99.90;;;;;;5050477;28;20853;-59
2021/10/31 00:34:34;;;;;;;7.07;3.03;;;14.00;99.90;;;;;;5049887;28;20846;-54
2021/10/31 00:37:00;;;;;;;6.47;2.93;;;14.10;99.90;;;;;;5050340;28;20392;-54
2021/10/31 00:39:26;;;;;;;5.85;2.90;;;14.20;99.90;;;;;;5049452;28;20413;-54
2021/10/31 00:41:52;;;;;;;6.90;3.40;;;14.20;99.90;;;;;;5050268;28;20487;-55
2021/10/31 00:44:17;;;;;;;7.07;3.30;;;14.20;99.90;;;;;;5049608;28;20805;-54
2021/10/31 00:46:43;;;;;;;6.10;3.10;;;14.10;99.90;;;;;;5050311;28;20377;-54
2021/10/31 00:49:09;;;;;;;6.47;3.00;;;14.00;99.90;;;;;;5050167;28;20397;-59
2021/10/31 00:51:35;;;;;;;6.70;2.60;;;14.20;99.90;;;;;;5049610;28;20776;-54
2021/10/31 00:54:01;;;;;;;6.68;3.03;;;14.10;99.90;;;;;;5049924;28;20395;-54
2021/10/31 00:56:27;;;;;;;7.25;3.17;;;14.10;99.90;;;;;;5049209;28;20468;-54
2021/10/31 00:58:53;;;;;;;7.20;3.00;;;14.00;99.90;;;;;;5049914;28;20760;-54
2021/10/31 01:01:21;;;;;;;6.07;2.95;;;14.00;99.90;;;;;;5049322;28;20378;-54
2021/10/31 01:03:47;;;;;;;5.78;2.80;;;14.00;99.90;;;;;;5049740;28;20385;-54
2021/10/31 01:06:28;;;;;;;7.38;2.80;;;13.90;99.90;;;;;;5049365;28;20373;-60
2021/10/31 01:08:57;;;;;;;6.30;2.50;;;13.90;99.90;;;;;;5049974;28;20385;-54
2021/10/31 01:11:35;;;;;;;6.63;2.90;;;13.80;99.90;;;;;;5048747;28;20405;-55
2021/10/31 01:14:26;;;;;;;6.20;2.67;;;13.70;99.90;;;;;;5049860;28;20428;-54
2021/10/31 01:17:32;;;;;;;5.40;2.30;;;13.60;99.90;;;;;;5049525;28;20840;-54
2021/10/31 01:20:16;;;;;;;6.20;2.70;;;13.60;99.90;;;;;;5049291;28;20480;-54
2021/10/31 01:23:08;;;;;;;7.32;3.30;;;13.50;99.90;;;;;;5049318;28;20464;-54
2021/10/31 01:25:51;;;;;;;6.00;2.40;;;13.50;99.90;;;;;;5049068;28;20853;-54
2021/10/31 01:28:51;;;;;;;5.53;2.45;;;13.40;99.90;;;;;;5048869;28;20396;-55
2021/10/31 01:31:39;;;;;;;5.50;2.55;;;13.30;99.90;;;;;;5048659;28;20400;-55
2021/10/31 01:34:46;;;;;;;8.40;2.80;;;12.90;99.90;;;;;;5049536;28;20381;-54
2021/10/31 01:37:28;;;;;;;8.00;2.85;;;12.60;99.90;;;;;;5038065;28;20437;-59
2021/10/31 01:40:10;;;;;;;8.40;2.75;;;12.50;99.90;;;;;;5049547;28;20934;-55
2021/10/31 01:42:59;;;;;;;6.10;2.70;;;12.50;99.90;;;;;;5049046;28;20386;-54
2021/10/31 01:45:31;;;;;;;6.50;2.92;;;12.30;99.90;;;;;;5048564;28;20388;-55
2021/10/31 01:48:26;;;;;;;5.95;2.58;;;12.10;99.90;;;;;;5049545;28;20404;-54
2021/10/31 01:50:58;;;;;;;6.10;2.85;;;12.10;99.90;;;;;;5049556;28;20393;-54
2021/10/31 01:53:31;;;;;;;6.38;2.63;;;12.10;99.90;;;;;;5048595;28;20409;-54
2021/10/31 01:56:17;;;;;;;6.43;2.90;;;12.10;99.90;;;;;;5049017;28;20380;-55
2021/10/31 01:59:05;;;;;;;6.28;2.78;;;12.10;99.90;;;;;;5048967;28;20409;-55
2021/10/31 02:01:33;;;;;;;5.40;2.40;;;12.00;99.90;;;;;;5048725;28;20483;-54
2021/10/31 02:04:05;;;;;;;5.05;2.20;;;11.80;99.90;;;;;;5048819;28;20896;-54
2021/10/31 02:06:34;;;;;;;5.95;2.70;;;11.80;99.90;;;;;;5048349;28;20577;-54
2021/10/31 02:09:00;;;;;;;6.40;2.70;;;11.90;99.90;;;;;;5049062;28;20393;-54
2021/10/31 02:11:27;;;;;;;5.50;2.30;;;12.00;99.90;;;;;;5046309;28;20409;-54
2021/10/31 02:13:54;;;;;;;5.30;2.40;;;12.20;99.90;;;;;;5049112;28;20404;-54
2021/10/31 02:16:22;;;;;;;6.05;2.45;;;12.20;99.90;;;;;;5048669;28;20477;-54
2021/10/31 02:18:50;;;;;;;6.10;2.30;;;12.20;99.90;;;;;;5048907;28;20409;-54
2021/10/31 02:21:18;;;;;;;6.50;2.20;;;12.20;99.90;;;;;;5048225;28;20506;-59
2021/10/31 02:23:45;;;;;;;5.55;2.22;;;12.30;99.90;;;;;;5049133;28;20408;-54
2021/10/31 02:26:13;;;;;;;5.10;2.05;;;12.40;99.90;;;;;;5048876;28;20464;-54
2021/10/31 02:28:40;;;;;;;5.35;2.30;;;12.50;99.90;;;;;;5047429;28;20442;-54
2021/10/31 02:31:06;;;;;;;6.18;2.67;;;12.60;99.90;;;;;;5047752;28;20451;-55
2021/10/31 02:33:32;;;;;;;6.50;2.63;;;12.50;99.90;;;;;;5049920;28;20532;-54
2021/10/31 02:35:58;;;;;;;5.97;2.60;;;12.40;99.90;;;;;;5052520;28;20480;-54
2021/10/31 02:38:24;;;;;;;6.68;3.00;;;12.40;99.90;;;;;;5051438;28;20880;-54
2021/10/31 02:40:50;;;;;;;8.68;3.40;;;12.40;99.90;;;;;;5052473;28;20389;-55
2021/10/31 02:43:16;;;;;;;6.80;3.20;;;12.40;99.90;;;;;;5051972;28;20387;-55
2021/10/31 02:45:41;;;;;;;8.13;2.92;;;12.30;99.90;;;;;;5052631;28;20378;-56
2021/10/31 02:48:11;;;;;;;6.20;2.70;;;12.20;99.90;;;;;;5052623;28;20381;-54
2021/10/31 02:50:42;;;;;;;7.38;3.80;;;12.00;99.90;;;;;;5051555;28;20377;-54
2021/10/31 02:53:32;;;;;;;7.00;3.30;;;11.90;99.90;;;;;;5052253;28;20385;-54
2021/10/31 02:56:25;;;;;;;7.10;3.10;;;12.00;99.90;;;;;;5051789;28;20473;-55
2021/10/31 02:58:57;;;;;;;6.45;2.70;;;12.10;99.90;;;;;;5049698;28;20424;-54
2021/10/31 03:01:24;;;;;;;5.90;2.70;;;12.30;99.90;;;;;;5050341;28;20382;-55
2021/10/31 03:03:54;;;;;;;5.80;2.90;;;12.40;99.90;;;;;;5050799;28;20449;-55
2021/10/31 03:06:21;;;;;;;6.60;3.00;;;12.50;99.90;;;;;;5050804;28;21208;-54
2021/10/31 03:08:47;;;;;;;6.00;2.80;;;12.60;99.90;;;;;;5051086;28;20397;-54
2021/10/31 03:11:13;;;;;;;7.13;3.00;;;12.70;99.90;;;;;;5049368;28;20417;-60
2021/10/31 03:13:39;;;;;;;5.90;2.70;;;12.60;99.90;;;;;;5050779;28;20382;-54
2021/10/31 03:16:09;;;;;;;6.97;2.78;;;12.60;99.90;;;;;;5051372;28;20382;-55
2021/10/31 03:18:36;;;;;;;6.55;3.00;;;12.60;99.90;;;;;;5050445;28;20405;-54
2021/10/31 03:21:02;;;;;;;6.60;3.10;;;12.70;99.90;;;;;;5051030;28;20830;-54
2021/10/31 03:23:28;;;;;;;6.18;2.88;;;12.80;99.90;;;;;;5040336;28;20431;-56
2021/10/31 03:25:54;;;;;;;6.30;2.83;;;12.80;99.90;;;;;;5045239;28;20422;-54
2021/10/31 03:28:20;;;;;;;6.43;3.00;;;12.70;99.90;;;;;;5039952;28;20439;-54
2021/10/31 03:30:46;;;;;;;7.32;3.40;;;12.80;99.90;;;;;;5050867;28;20382;-55
2021/10/31 03:33:13;;;;;;;6.90;3.17;;;12.70;99.90;;;;;;5042151;28;20387;-59
2021/10/31 03:35:39;;;;;;;7.47;3.47;;;12.70;99.90;;;;;;5037434;28;20839;-54
2021/10/31 03:38:04;;;;;;;6.00;2.90;;;12.70;99.90;;;;;;5036394;28;20428;-55
2021/10/31 03:40:30;;;;;;;8.10;3.30;;;12.70;99.90;;;;;;5036282;28;20513;-54
2021/10/31 03:42:56;;;;;;;7.57;3.50;;;12.70;99.90;;;;;;5039578;28;20412;-54
2021/10/31 03:45:22;;;;;;;6.47;3.05;;;12.70;99.90;;;;;;5050511;28;20392;-54
2021/10/31 03:47:48;;;;;;;6.82;3.45;;;12.70;99.90;;;;;;5051395;28;20481;-54
2021/10/31 03:50:16;;;;;;;5.95;3.13;;;12.80;99.90;;;;;;5050966;28;20706;-59
2021/10/31 03:52:42;;;;;;;7.30;3.40;;;12.80;99.90;;;;;;5051367;28;20386;-54
2021/10/31 03:55:08;;;;;;;6.43;3.20;;;12.80;99.90;;;;;;5051196;28;20880;-54
2021/10/31 03:57:38;;;;;;;8.10;3.60;;;12.70;99.90;;;;;;5050275;28;20369;-54
2021/10/31 04:00:13;;;;;;;6.95;3.67;;;12.60;99.90;;;;;;5051119;28;20382;-55
2021/10/31 04:02:39;;;;;;;8.60;3.97;;;12.50;99.90;;;;;;5050083;28;20471;-54
2021/10/31 04:05:06;;;;;;;8.00;4.05;;;12.40;99.90;;;;;;5050895;28;20412;-54
2021/10/31 04:07:32;;;;;;;8.40;4.95;;;12.40;99.90;;;;;;5050048;28;20605;-54
2021/10/31 04:09:58;;;;;;;10.25;5.20;;;12.50;99.90;;;;;;5050692;28;21104;-54
2021/10/31 04:12:25;;;;;;;10.40;5.43;;;12.60;99.90;;;;;;5049969;28;20848;-54
2021/10/31 04:14:50;;;;;;;10.27;6.60;;;12.50;99.90;;;;;;5050786;28;20381;-55
2021/10/31 04:17:16;;;;;;;14.73;6.50;;;12.30;99.90;;;;;;5050343;28;20477;-58
2021/10/31 04:19:42;;;;;;;10.60;6.30;;;12.10;99.90;;;;;;5050438;28;20413;-54
2021/10/31 04:22:08;;;;;;;10.60;6.40;;;12.10;99.90;;;;;;5050911;28;20435;-54
2021/10/31 04:24:34;;;;;;;11.63;6.93;;;12.10;99.90;;;;;;5049774;28;20593;-54
2021/10/31 04:27:01;;;;;;;12.25;7.78;;;12.10;99.90;;;;;;5049452;28;20432;-54
2021/10/31 04:29:27;;;;;;;13.35;7.90;;;12.00;99.90;;;;;;5049636;28;20385;-54
2021/10/31 04:31:53;;;;;;;12.65;8.10;;;12.00;99.90;;;;;;5050370;28;20377;-54
2021/10/31 04:34:18;;;;;;;13.35;7.85;;;11.90;99.90;;;;;;5049836;28;20461;-58
2021/10/31 04:36:44;;;;;;;11.52;8.18;;;12.00;99.90;;;;;;5050106;28;20389;-54
2021/10/31 04:39:11;;;;;;;11.70;7.63;;;12.00;99.90;;;;;;5050305;28;20505;-54
2021/10/31 04:41:38;;;;;;;12.23;8.10;;;12.00;99.90;;;;;;5049538;28;20829;-54
2021/10/31 04:44:04;;;;;;;12.48;8.20;;;12.00;99.90;;;;;;5050443;28;20881;-54
2021/10/31 04:46:30;;;;;;;11.23;7.30;;;11.90;99.90;;;;;;5049441;28;20389;-54
2021/10/31 04:48:55;;;;;;;11.98;6.70;;;12.00;99.90;;;;;;5050207;28;20498;-54
2021/10/31 04:51:21;;;;;;;9.47;5.47;;;11.90;99.90;;;;;;5049211;28;20394;-54
2021/10/31 04:53:46;;;;;;;11.13;6.17;;;12.00;99.90;;;;;;5049776;28;20892;-55
2021/10/31 04:56:12;;;;;;;9.70;5.80;;;12.10;99.90;;;;;;5049763;28;20393;-54
2021/10/31 04:58:38;;;;;;;10.30;6.60;;;12.10;99.90;;;;;;5048977;28;20508;-54
2021/10/31 05:01:04;;;;;;;10.25;6.30;;;12.10;99.90;;;;;;5049932;28;20447;-54
2021/10/31 05:03:29;;;;;;;10.27;6.50;;;12.10;99.90;;;;;;5048687;28;20916;-54
2021/10/31 05:05:55;;;;;;;10.35;6.22;;;12.10;99.90;;;;;;5048742;28;20378;-55
2021/10/31 05:08:21;;;;;;;11.70;6.10;;;12.00;99.90;;;;;;5048915;28;20428;-54
2021/10/31 05:10:46;;;;;;;10.40;6.35;;;11.90;99.90;;;;;;5049216;28;20824;-54
2021/10/31 05:13:12;;;;;;;10.60;6.40;;;11.90;99.90;;;;;;5042091;28;20397;-54
2021/10/31 05:15:38;;;;;;;11.20;6.70;;;11.80;99.90;;;;;;5034127;28;20383;-54
2021/10/31 05:18:04;;;;;;;12.03;7.00;;;11.80;99.90;;;;;;5029460;28;20403;-54
2021/10/31 05:20:29;;;;;;;12.68;6.80;;;11.80;99.90;;;;;;5028996;28;20874;-54
2021/10/31 05:22:55;;;;;;;10.80;7.07;;;11.70;99.90;;;;;;5029899;28;20379;-54
2021/10/31 05:25:21;;;;;;;11.77;7.18;;;11.70;99.90;;;;;;5028065;28;20678;-54
2021/10/31 05:27:46;;;;;;;11.37;7.30;;;11.80;99.90;;;;;;5029345;28;20391;-54
2021/10/31 05:30:13;;;;;;;11.10;7.57;;;11.70;99.90;;;;;;5029502;28;20391;-54
2021/10/31 05:32:40;;;;;;;11.10;6.80;;;11.60;99.90;;;;;;5028825;28;20387;-54
2021/10/31 05:35:08;;;;;;;10.88;6.90;;;11.60;99.90;;;;;;5029583;28;20445;-54
2021/10/31 05:37:37;;;;;;;10.35;6.68;;;11.50;99.90;;;;;;5028696;28;20395;-54
2021/10/31 05:40:05;;;;;;;10.88;7.03;;;11.50;99.90;;;;;;5029452;28;20454;-54
2021/10/31 05:42:31;;;;;;;12.48;6.50;;;11.60;99.90;;;;;;5028420;28;20981;-54
2021/10/31 05:44:56;;;;;;;11.85;6.63;;;11.50;99.90;;;;;;5029791;28;20969;-55
2021/10/31 05:47:22;;;;;;;10.13;6.67;;;11.50;99.90;;;;;;5032956;28;20405;-54
2021/10/31 05:49:48;;;;;;;11.27;6.80;;;11.50;99.90;;;;;;5040431;28;20462;-54
2021/10/31 05:52:14;;;;;;;11.18;7.10;;;11.40;99.90;;;;;;5033609;28;20788;-54
2021/10/31 05:54:40;;;;;;;12.50;7.57;;;11.40;99.90;;;;;;5048271;28;20384;-54
2021/10/31 05:57:05;;;;;;;12.73;7.60;;;11.30;99.90;;;;;;5071229;28;20909;-55
2021/10/31 05:59:31;;;;;;;12.15;7.35;;;11.30;99.90;;;;;;5028489;28;20417;-54
2021/10/31 06:01:57;;;;;;;12.95;6.95;;;11.30;99.90;;;;;;5029077;28;20422;-54
2021/10/31 06:04:25;;;;;;;11.20;7.30;;;11.30;99.90;;;;;;5027962;28;20383;-54
2021/10/31 06:06:51;;;;;;;10.07;6.27;;;11.30;99.90;;;;;;5048412;28;20853;-56
2021/10/31 06:09:17;;;;;;;12.27;7.07;;;11.50;99.90;;;;;;5050540;28;20414;-58
2021/10/31 06:11:42;;;;;;;13.40;7.10;;;11.70;99.90;;;;;;5051932;28;20408;-54
2021/10/31 06:14:11;;;;;;;9.87;6.50;;;11.80;99.90;;;;;;5052932;28;20452;-54
2021/10/31 06:16:36;;;;;;;13.23;7.95;;;11.90;99.90;;;;;;5051912;28;20389;-54
2021/10/31 06:19:02;;;;;;;11.23;7.35;;;11.90;99.90;;;;;;5052414;28;20409;-54
2021/10/31 06:21:28;;;;;;;13.03;8.37;;;11.90;99.90;;;;;;5051732;28;20926;-55
2021/10/31 06:23:53;;;;;;;12.80;8.20;;;11.80;99.90;;;;;;5032806;28;20435;-54
2021/10/31 06:26:19;;;;;;;12.00;8.13;;;11.70;99.90;;;;;;5032289;28;20383;-59
2021/10/31 06:28:44;;;;;;;13.67;9.23;;;11.80;99.90;;;;;;5032179;28;20866;-54
2021/10/31 06:31:10;;;;;;;13.95;8.50;;;11.80;99.90;;;;;;5032261;28;20422;-55
2021/10/31 06:33:36;;;;;;;13.23;9.00;;;11.80;99.90;;;;;;5031720;28;21217;-54
2021/10/31 06:36:01;;;;;;;15.25;9.40;;;11.70;99.90;;;;;;5032501;28;20457;-54
2021/10/31 06:38:27;;;;;;;14.37;8.77;;;11.70;99.90;;;;;;5031882;28;20925;-55
2021/10/31 06:40:53;;;;;;;14.27;9.43;;;11.70;99.90;;;;;;5032527;28;20708;-54
2021/10/31 06:43:18;;;;;;;14.60;9.30;;;11.80;99.90;;;;;;5032050;28;20378;-59
2021/10/31 06:45:45;;;;;;;15.07;9.43;;;11.90;99.90;;;;;;5031562;28;20391;-54
2021/10/31 06:48:10;;;;;;;12.98;8.55;;;12.00;99.90;;;;;;5032093;28;20387;-54
2021/10/31 06:50:37;;;;;;;11.85;8.65;;;12.10;99.90;;;;;;5031396;28;20504;-54
2021/10/31 06:53:02;;;;;;;14.15;9.18;;;12.10;99.90;;;;;;5030662;28;20390;-54
2021/10/31 06:55:28;;;;;;;12.63;8.75;;;12.10;99.90;;;;;;5031045;28;20383;-55
2021/10/31 06:57:55;;;;;;;14.02;9.13;;;12.30;99.90;;;;;;5050470;28;20474;-55
2021/10/31 07:00:21;;;;;;;12.45;8.27;;;12.40;99.90;;;;;;5051256;28;20527;-58
2021/10/31 07:02:47;;;;;;;13.52;8.30;;;12.60;99.90;;;;;;5051873;28;20385;-54
2021/10/31 07:05:13;;;;;;;12.30;8.50;;;12.90;99.90;;;;;;5051491;28;20400;-54
2021/10/31 07:07:39;;;;;;;12.63;8.30;;;13.10;99.90;;;;;;5082917;28;20979;-54
2021/10/31 07:10:05;;;;;;;13.20;8.30;;;13.40;99.90;;;;;;5051416;28;20405;-54
2021/10/31 07:12:31;;;;;;;12.40;8.82;;;13.80;99.90;;;;;;5076676;28;20430;-55
2021/10/31 07:14:57;;;;;;;12.57;8.30;;;14.20;99.90;;;;;;5033848;28;20894;-54
2021/10/31 07:17:22;;;;;;;13.52;8.38;;;14.70;99.90;;;;;;5034287;28;20916;-56
2021/10/31 07:19:48;;;;;;;12.03;8.07;;;15.10;99.90;;;;;;5030986;28;20410;-55
2021/10/31 07:22:18;;;;;;;13.30;8.77;;;15.40;99.90;;;;;;5031430;28;20417;-55
2021/10/31 07:24:45;;;;;;;13.73;9.05;;;15.80;99.90;;;;;;5031367;28;20470;-55
2021/10/31 07:27:11;;;;;;;14.00;9.48;;;16.10;99.90;;;;;;5031340;28;20466;-55
2021/10/31 07:29:36;;;;;;;14.60;9.90;;;16.70;99.90;;;;;;5030580;28;20471;-55
2021/10/31 07:32:02;;;;;;;13.10;9.57;;;17.00;99.90;;;;;;5031464;28;20390;-55
2021/10/31 07:34:28;;;;;;;13.27;8.90;;;17.10;99.90;;;;;;5030529;28;20382;-55
2021/10/31 07:36:53;;;;;;;12.80;9.90;;;17.50;99.90;;;;;;5031382;28;20402;-55
2021/10/31 07:39:19;;;;;;;12.40;11.10;;;18.50;99.90;;;;;;5042859;28;20884;-60
2021/10/31 07:41:45;;;;;;;15.20;11.73;;;19.70;99.90;;;;;;5050858;28;20923;-57
2021/10/31 07:44:11;;;;;;;15.47;12.33;;;20.90;99.90;;;;;;5046971;28;20437;-55
2021/10/31 07:46:36;;;;;;;12.80;8.33;;;21.60;99.90;;;;;;5030358;28;20387;-55
2021/10/31 07:49:02;;;;;;;10.43;7.10;;;22.50;99.90;;;;;;5030500;28;20383;-55
2021/10/31 07:51:29;;;;;;;11.32;6.78;;;23.10;99.90;;;;;;5031644;28;20445;-56
2021/10/31 07:53:55;;;;;;;11.00;7.25;;;24.10;99.10;;;;;;5050620;28;20765;-55
2021/10/31 07:56:23;;;;;;;11.97;9.20;;;24.60;96.60;;;;;;5050304;28;20408;-60
2021/10/31 07:58:54;;;;;;;16.52;15.13;;;24.60;95.70;;;;;;5050388;28;20392;-55
2021/10/31 08:01:21;;;;;;;11.35;7.70;;;23.60;95.00;;;;;;5050121;28;20416;-60
2021/10/31 08:03:47;;;;;;;12.57;10.88;;;22.30;97.60;;;;;;5050057;28;20431;-56
2021/10/31 08:06:13;;;;;;;13.68;10.10;;;21.50;99.10;;;;;;5048623;28;20394;-56
2021/10/31 08:08:39;;;;;;;10.57;9.07;;;21.10;99.70;;;;;;5049191;28;20409;-55
2021/10/31 08:11:05;;;;;;;12.00;9.20;;;21.10;99.90;;;;;;5050262;28;20504;-55
2021/10/31 08:13:30;;;;;;;11.20;9.02;;;20.90;99.90;;;;;;5049640;28;20471;-56
2021/10/31 08:15:56;;;;;;;11.25;8.68;;;20.20;99.90;;;;;;5046665;28;20901;-55
2021/10/31 08:18:23;;;;;;;12.90;9.30;;;18.90;99.90;;;;;;5046816;28;20409;-60
2021/10/31 08:20:49;;;;;;;13.05;9.10;;;18.30;99.90;;;;;;5040706;28;20378;-55
2021/10/31 08:23:15;;;;;;;12.38;7.50;;;17.90;99.90;;;;;;5050203;28;20377;-55
2021/10/31 08:25:45;;;;;;;11.00;7.90;;;17.80;99.90;;;;;;5041992;28;20450;-56
2021/10/31 08:28:12;;;;;;;11.73;8.57;;;17.80;99.90;;;;;;5047535;28;20580;-55
2021/10/31 08:30:43;;;;;;;11.40;8.70;;;17.80;99.90;;;;;;5049485;28;20439;-57
2021/10/31 08:33:22;;;;;;;10.73;7.93;;;17.70;99.90;;;;;;5049941;28;20393;-55
2021/10/31 08:35:48;;;;;;;11.02;7.75;;;17.40;99.90;;;;;;5049607;28;20887;-56
2021/10/31 08:38:14;;;;;;;10.80;7.40;;;17.10;99.90;;;;;;5049293;28;20413;-55
2021/10/31 08:40:42;;;;;;;11.95;7.93;;;17.30;99.90;;;;;;5048867;28;20425;-55
2021/10/31 08:43:09;;;;;;;10.77;7.28;;;17.70;99.90;;;;;;5049852;28;20377;-55
2021/10/31 08:45:45;;;;;;;11.48;6.82;;;17.60;99.90;;;;;;5048652;28;20737;-57
2021/10/31 08:48:11;;;;;;;11.75;7.20;;;17.50;99.90;;;;;;5047250;28;20482;-57
2021/10/31 08:50:37;;;;;;;12.45;6.70;;;18.00;99.90;;;;;;5048220;28;20373;-55
2021/10/31 08:53:05;;;;;;;10.73;6.80;;;18.80;99.90;;;;;;5048793;28;20663;-55
2021/10/31 08:55:31;;;;;;;9.80;6.90;;;19.60;99.90;;;;;;5048026;28;20526;-55
2021/10/31 08:57:57;;;;;;;10.07;7.07;;;20.50;99.90;;;;;;5048998;28;20501;-56
2021/10/31 09:00:23;;;;;;;9.15;6.82;;;21.50;99.90;;;;;;5048543;28;20389;-61
2021/10/31 09:02:49;;;;;;;8.68;5.90;;;22.40;99.90;;;;;;5048208;28;20393;-55
2021/10/31 09:05:14;;;;;;;11.18;6.80;;;22.50;99.90;;;;;;5049065;28;20733;-57
2021/10/31 09:07:40;;;;;;;10.60;7.30;;;22.40;99.90;;;;;;5047595;28;20554;-56
2021/10/31 09:10:06;;;;;;;10.25;7.20;;;21.90;99.90;;;;;;5046140;28;20924;-56
2021/10/31 09:12:32;;;;;;;8.95;6.70;;;21.70;99.90;;;;;;5047994;28;20370;-57
2021/10/31 09:14:58;;;;;;;9.20;7.07;;;21.50;99.90;;;;;;5048172;28;20389;-56
2021/10/31 09:17:23;;;;;;;9.90;7.00;;;21.00;99.90;;;;;;5046619;28;20919;-61
2021/10/31 09:19:50;;;;;;;9.38;6.70;;;20.70;99.90;;;;;;5048090;28;20401;-56
2021/10/31 09:22:15;;;;;;;8.17;6.00;;;20.80;99.90;;;;;;5046798;28;20472;-55
2021/10/31 09:24:41;;;;;;;7.60;5.20;;;21.00;99.90;;;;;;5046267;28;21074;-55
2021/10/31 09:27:07;;;;;;;8.57;5.60;;;21.40;99.90;;;;;;5048321;28;20389;-55
2021/10/31 09:29:32;;;;;;;8.23;5.63;;;21.10;99.90;;;;;;5047794;28;20869;-55
2021/10/31 09:31:59;;;;;;;7.60;5.20;;;21.00;99.90;;;;;;5048066;28;20892;-56
2021/10/31 09:34:27;;;;;;;8.02;5.53;;;20.80;99.90;;;;;;5046267;28;20389;-60
2021/10/31 09:36:53;;;;;;;9.02;4.93;;;21.00;99.90;;;;;;5048354;28;20397;-56
2021/10/31 09:39:19;;;;;;;8.05;4.90;;;21.10;99.90;;;;;;5047729;28;20420;-55
2021/10/31 09:41:45;;;;;;;7.45;5.35;;;21.40;99.90;;;;;;5047602;28;20500;-57
2021/10/31 09:46:38;;;;;;;7.68;5.10;;;22.10;99.90;;;;;;5047339;28;20472;-56
2021/10/31 09:49:04;;;;;;;7.40;4.88;;;22.30;98.80;;;;;;5048401;28;20836;-56
2021/10/31 09:51:31;;;;;;;7.45;4.90;;;22.10;99.30;;;;;;5047575;28;20485;-56
2021/10/31 09:54:01;;;;;;;7.97;5.85;;;22.70;98.80;;;;;;5048491;28;20428;-56
2021/10/31 09:56:28;;;;;;;9.80;5.70;;;23.40;97.40;;;;;;5047567;28;20406;-57
2021/10/31 09:58:58;;;;;;;8.88;6.03;;;23.20;96.80;;;;;;5046993;28;20900;-57
2021/10/31 10:01:49;;;;;;;7.50;5.67;;;22.70;97.40;;;;;;5039969;28;20435;-60
2021/10/31 10:04:26;;;;;;;7.82;5.93;;;22.70;97.20;;;;;;5037811;28;20420;-60
2021/10/31 10:06:53;;;;;;;7.80;5.80;;;22.50;97.60;;;;;;5048297;28;20450;-61
2021/10/31 10:09:19;;;;;;;9.73;5.90;;;22.90;98.40;;;;;;5045957;28;20390;-61
2021/10/31 10:11:46;;;;;;;7.30;5.70;;;23.40;96.60;;;;;;5045031;28;20407;-60
2021/10/31 10:14:19;;;;;;;6.70;3.60;;;23.40;96.80;;;;;;5047929;28;20404;-60
2021/10/31 10:16:46;;;;;;;7.13;3.23;;;23.80;95.70;;;;;;5044707;28;20396;-61
2021/10/31 10:19:19;;;;;;;7.63;3.63;;;24.30;95.00;;;;;;5037692;28;20475;-60
2021/10/31 10:21:55;;;;;;;6.80;3.97;;;25.00;93.60;;;;;;5031232;28;20419;-60
2021/10/31 10:24:24;;;;;;;6.40;3.20;;;25.40;93.30;;;;;;5039679;28;20406;-60
2021/10/31 10:26:53;;;;;;;8.63;3.10;;;25.40;92.50;;;;;;5046648;28;20381;-61
2021/10/31 10:29:28;;;;;;;6.85;3.40;;;25.50;91.60;;;;;;5037230;28;20399;-60
2021/10/31 10:31:59;;;;;;;6.55;3.20;;;25.40;91.40;;;;;;5033321;28;20457;-60
2021/10/31 10:34:37;;;;;;;6.80;3.40;;;25.40;91.10;;;;;;5034246;28;20532;-60
2021/10/31 10:37:08;;;;;;;6.70;3.20;;;25.60;91.40;;;;;;5034002;28;20445;-61
2021/10/31 10:39:36;;;;;;;7.30;4.70;;;25.40;90.80;;;;;;5032694;28;20438;-61
2021/10/31 10:42:02;;;;;;;6.70;3.13;;;25.90;90.20;;;;;;5046912;28;20409;-60
2021/10/31 10:44:34;;;;;;;7.43;6.57;;;26.30;88.10;;;;;;5029095;28;20379;-60
2021/10/31 10:47:05;;;;;;;5.95;2.60;;;26.00;87.80;;;;;;5032079;28;20413;-61
2021/10/31 10:49:34;;;;;;;5.80;2.30;;;25.50;88.20;;;;;;5034431;28;20938;-61
2021/10/31 10:52:19;;;;;;;5.73;2.30;;;25.00;90.50;;;;;;5028503;28;20413;-61
2021/10/31 10:54:48;;;;;;;5.60;2.35;;;25.00;89.10;;;;;;5030355;28;20420;-61
2021/10/31 10:57:14;;;;;;;6.10;2.70;;;24.60;90.80;;;;;;5035879;28;20415;-61
2021/10/31 10:59:41;;;;;;;6.60;2.50;;;24.50;90.60;;;;;;5031665;28;20393;-60
2021/10/31 11:02:14;;;;;;;7.60;2.80;;;24.60;90.50;;;;;;5031290;28;20403;-60
2021/10/31 11:04:41;;;;;;;7.20;5.22;;;24.20;90.50;;;;;;5032133;28;20437;-61
2021/10/31 11:07:08;;;;;;;7.50;6.22;;;24.20;90.50;;;;;;5042407;28;20504;-61
2021/10/31 11:09:55;;;;;;;7.50;5.70;;;23.20;91.50;;;;;;5036843;28;20403;-60
2021/10/31 11:12:26;;;;;;;6.45;5.57;;;23.00;92.90;;;;;;5032569;28;20457;-60
2021/10/31 11:15:01;;;;;;;6.60;4.90;;;22.70;92.60;;;;;;5033218;28;20953;-60
2021/10/31 11:17:27;;;;;;;7.60;5.85;;;22.50;92.90;;;;;;5031115;28;20924;-60
2021/10/31 11:19:54;;;;;;;7.50;5.68;;;22.40;93.90;;;;;;5035888;28;20411;-60
2021/10/31 11:22:22;;;;;;;7.00;5.80;;;22.50;94.30;;;;;;5035212;28;20387;-60
2021/10/31 11:24:50;;;;;;;8.27;6.47;;;22.60;92.80;;;;;;5033919;28;20403;-60
2021/10/31 11:27:19;;;;;;;7.80;5.40;;;22.70;93.50;;;;;;5034709;28;20486;-60
2021/10/31 11:29:46;;;;;;;8.45;5.75;;;22.70;93.00;;;;;;5039894;28;20409;-61
2021/10/31 11:32:14;;;;;;;7.17;5.87;;;22.50;93.40;;;;;;5043293;28;20841;-60
2021/10/31 11:34:45;;;;;;;8.00;6.00;;;22.60;94.20;;;;;;5044795;28;20397;-59
2021/10/31 11:37:13;;;;;;;7.30;5.30;;;22.70;93.40;;;;;;5039672;28;20405;-60
2021/10/31 11:39:41;;;;;;;7.03;4.40;;;22.70;92.90;;;;;;5033580;28;20411;-56
2021/10/31 11:42:07;;;;;;;9.15;6.00;;;22.70;93.00;;;;;;5032982;28;20489;-58
2021/10/31 11:44:57;;;;;;;7.97;5.68;;;22.80;93.00;;;;;;5069307;28;20510;-57
2021/10/31 11:47:29;;;;;;;7.10;5.80;;;23.20;92.10;;;;;;5042544;28;20695;-59
2021/10/31 11:50:06;;;;;;;7.00;6.00;;;23.10;90.40;;;;;;5037242;28;20390;-57
2021/10/31 11:52:44;;;;;;;8.25;5.80;;;22.90;90.40;;;;;;5034214;28;20419;-58
2021/10/31 11:55:24;;;;;;;8.38;5.57;;;22.70;90.50;;;;;;5032090;28;20465;-57
2021/10/31 11:58:01;;;;;;;7.80;6.30;;;22.50;90.90;;;;;;5032491;28;21218;-60
2021/10/31 12:00:28;;;;;;;6.93;5.78;;;22.30;92.20;;;;;;5038959;28;20898;-62
2021/10/31 12:02:56;;;;;;;7.05;5.20;;;22.40;91.20;;;;;;5034231;28;20417;-57
2021/10/31 12:05:37;;;;;;;7.90;6.50;;;22.40;91.40;;;;;;5033418;28;20393;-59
2021/10/31 12:08:04;;;;;;;7.10;5.80;;;22.40;91.20;;;;;;5039379;28;20829;-57
2021/10/31 12:10:45;;;;;;;6.88;5.22;;;22.50;90.60;;;;;;5031670;28;20427;-57
2021/10/31 12:13:23;;;;;;;6.60;5.20;;;22.80;91.20;;;;;;5038431;28;20386;-57
2021/10/31 12:16:18;;;;;;;7.00;5.90;;;22.80;90.30;;;;;;5038210;28;20401;-56
2021/10/31 12:18:51;;;;;;;6.47;5.33;;;22.60;89.10;;;;;;5044706;28;20993;-57
2021/10/31 12:21:30;;;;;;;7.30;5.40;;;22.70;86.70;;;;;;5031030;28;20490;-56
2021/10/31 12:24:17;;;;;;;6.53;5.20;;;22.70;83.90;;;;;;5033629;28;21129;-56
2021/10/31 12:26:54;;;;;;;6.38;5.20;;;22.80;82.50;;;;;;5035519;28;20502;-57
2021/10/31 12:29:28;;;;;;;6.95;5.50;;;22.80;84.20;;;;;;5032334;28;20427;-57
2021/10/31 12:32:03;;;;;;;6.40;5.50;;;23.00;79.30;;;;;;5032003;28;20391;-57
2021/10/31 12:34:39;;;;;;;6.65;5.90;;;23.00;78.70;;;;;;5034047;28;20395;-64
2021/10/31 12:37:27;;;;;;;7.07;5.72;;;23.00;77.60;;;;;;5042077;28;20504;-60
2021/10/31 12:40:11;;;;;;;6.80;5.50;;;22.80;80.60;;;;;;5040434;28;20915;-59
2021/10/31 12:42:49;;;;;;;6.50;5.80;;;22.90;80.70;;;;;;5030244;28;20440;-58
2021/10/31 12:45:15;;;;;;;8.30;6.40;;;23.10;81.00;;;;;;5031772;28;20379;-57
2021/10/31 12:47:54;;;;;;;7.55;5.90;;;23.10;80.90;;;;;;5031859;28;20909;-58
2021/10/31 12:50:28;;;;;;;7.82;5.80;;;22.80;80.20;;;;;;5034114;28;20417;-61
2021/10/31 12:53:13;;;;;;;7.00;6.30;;;22.40;80.60;;;;;;5035552;28;20457;-60
2021/10/31 12:55:41;;;;;;;7.70;6.10;;;22.30;81.50;;;;;;5035715;28;20492;-57